sensor_id;sensor_type;location;lat;lon;timestamp;P1;durP1;ratioP1;P2;durP2;ratioP2
2824;SDS011;1420;51.324;12.344;2023-02-28T00:00:13;277.52;;;262.17;;
2824;SDS011;1420;51.324;12.344;2023-02-28T00:02:41;263.70;;;248.85;;
2824;SDS011;1420;51.324;12.344;2023-02-28T00:05:07;497.17;;;463.53;;
2824;SDS011;1420;51.324;12.344;2023-02-28T00:07:35;239.05;;;225.07;;
2824;SDS011;1420;51.324;12.344;2023-02-28T00:10:04;263.60;;;248.92;;
2824;SDS011;1420;51.324;12.344;2023-02-28T00:12:30;216.22;;;202.87;;
2824;SDS011;1420;51.324;12.344;2023-02-28T00:14:58;203.67;;;190.70;;
2824;SDS011;1420;51.324;12.344;2023-02-28T00:17:25;203.55;;;190.83;;
2824;SDS011;1420;51.324;12.344;2023-02-28T00:19:52;179.30;;;167.55;;
2824;SDS011;1420;51.324;12.344;2023-02-28T00:22:20;208.82;;;195.18;;
2824;SDS011;1420;51.324;12.344;2023-02-28T00:24:47;258.80;;;244.32;;
2824;SDS011;1420;51.324;12.344;2023-02-28T00:27:15;218.75;;;205.35;;
2824;SDS011;1420;51.324;12.344;2023-02-28T00:29:42;253.90;;;239.47;;
2824;SDS011;1420;51.324;12.344;2023-02-28T00:32:09;222.10;;;208.28;;
2824;SDS011;1420;51.324;12.344;2023-02-28T00:34:36;265.15;;;249.52;;
2824;SDS011;1420;51.324;12.344;2023-02-28T00:37:05;326.65;;;308.43;;
2824;SDS011;1420;51.324;12.344;2023-02-28T00:39:34;414.77;;;391.57;;
2824;SDS011;1420;51.324;12.344;2023-02-28T00:42:01;376.95;;;356.42;;
2824;SDS011;1420;51.324;12.344;2023-02-28T00:44:28;232.58;;;218.93;;
2824;SDS011;1420;51.324;12.344;2023-02-28T00:46:56;289.52;;;273.55;;
2824;SDS011;1420;51.324;12.344;2023-02-28T00:49:24;219.77;;;206.15;;
2824;SDS011;1420;51.324;12.344;2023-02-28T00:51:52;242.15;;;227.78;;
2824;SDS011;1420;51.324;12.344;2023-02-28T00:54:20;324.58;;;306.40;;
2824;SDS011;1420;51.324;12.344;2023-02-28T00:56:47;236.03;;;221.58;;
2824;SDS011;1420;51.324;12.344;2023-02-28T00:59:14;271.27;;;255.80;;
2824;SDS011;1420;51.324;12.344;2023-02-28T01:01:41;243.03;;;228.97;;
2824;SDS011;1420;51.324;12.344;2023-02-28T01:04:08;194.20;;;181.47;;
2824;SDS011;1420;51.324;12.344;2023-02-28T01:06:35;230.73;;;216.45;;
2824;SDS011;1420;51.324;12.344;2023-02-28T01:09:04;233.52;;;219.03;;
2824;SDS011;1420;51.324;12.344;2023-02-28T01:11:31;191.03;;;178.43;;
2824;SDS011;1420;51.324;12.344;2023-02-28T01:13:59;245.28;;;231.22;;
2824;SDS011;1420;51.324;12.344;2023-02-28T01:16:26;348.97;;;329.30;;
2824;SDS011;1420;51.324;12.344;2023-02-28T01:18:53;241.67;;;227.68;;
2824;SDS011;1420;51.324;12.344;2023-02-28T01:21:20;260.48;;;245.47;;
2824;SDS011;1420;51.324;12.344;2023-02-28T01:23:48;259.48;;;244.83;;
2824;SDS011;1420;51.324;12.344;2023-02-28T01:26:16;374.82;;;354.23;;
2824;SDS011;1420;51.324;12.344;2023-02-28T01:28:43;346.65;;;325.97;;
2824;SDS011;1420;51.324;12.344;2023-02-28T01:31:10;256.45;;;241.55;;
2824;SDS011;1420;51.324;12.344;2023-02-28T01:33:37;407.43;;;383.97;;
2824;SDS011;1420;51.324;12.344;2023-02-28T01:36:06;353.23;;;332.53;;
2824;SDS011;1420;51.324;12.344;2023-02-28T01:38:33;281.73;;;265.73;;
2824;SDS011;1420;51.324;12.344;2023-02-28T01:41:01;246.83;;;232.25;;
2824;SDS011;1420;51.324;12.344;2023-02-28T01:43:31;241.38;;;227.25;;
2824;SDS011;1420;51.324;12.344;2023-02-28T01:45:58;195.13;;;182.18;;
2824;SDS011;1420;51.324;12.344;2023-02-28T01:48:27;184.88;;;172.70;;
2824;SDS011;1420;51.324;12.344;2023-02-28T01:50:53;178.58;;;166.13;;
2824;SDS011;1420;51.324;12.344;2023-02-28T01:53:21;199.67;;;187.22;;
2824;SDS011;1420;51.324;12.344;2023-02-28T01:55:48;186.35;;;173.80;;
2824;SDS011;1420;51.324;12.344;2023-02-28T01:58:15;490.05;;;460.30;;
2824;SDS011;1420;51.324;12.344;2023-02-28T02:00:43;209.80;;;196.53;;
2824;SDS011;1420;51.324;12.344;2023-02-28T02:03:11;200.70;;;188.08;;
2824;SDS011;1420;51.324;12.344;2023-02-28T02:05:38;197.05;;;184.68;;
2824;SDS011;1420;51.324;12.344;2023-02-28T02:08:05;170.23;;;158.37;;
2824;SDS011;1420;51.324;12.344;2023-02-28T02:10:34;177.57;;;165.72;;
2824;SDS011;1420;51.324;12.344;2023-02-28T02:13:07;202.07;;;189.48;;
2824;SDS011;1420;51.324;12.344;2023-02-28T02:15:49;179.02;;;167.20;;
2824;SDS011;1420;51.324;12.344;2023-02-28T02:18:24;208.88;;;195.05;;
2824;SDS011;1420;51.324;12.344;2023-02-28T02:21:30;208.13;;;195.20;;
2824;SDS011;1420;51.324;12.344;2023-02-28T02:24:18;348.90;;;329.08;;
2824;SDS011;1420;51.324;12.344;2023-02-28T02:27:03;247.40;;;232.47;;
2824;SDS011;1420;51.324;12.344;2023-02-28T02:29:35;252.30;;;237.53;;
2824;SDS011;1420;51.324;12.344;2023-02-28T02:32:20;228.78;;;215.32;;
2824;SDS011;1420;51.324;12.344;2023-02-28T02:35:53;219.20;;;205.92;;
2824;SDS011;1420;51.324;12.344;2023-02-28T02:37:39;219.35;;;206.25;;
2824;SDS011;1420;51.324;12.344;2023-02-28T02:40:09;198.50;;;186.08;;
2824;SDS011;1420;51.324;12.344;2023-02-28T02:42:47;236.45;;;222.53;;
2824;SDS011;1420;51.324;12.344;2023-02-28T02:48:02;326.57;;;309.57;;
2824;SDS011;1420;51.324;12.344;2023-02-28T02:50:30;259.28;;;243.92;;
2824;SDS011;1420;51.324;12.344;2023-02-28T02:52:56;223.32;;;209.82;;
2824;SDS011;1420;51.324;12.344;2023-02-28T02:55:23;259.47;;;244.45;;
2824;SDS011;1420;51.324;12.344;2023-02-28T02:57:54;262.22;;;247.20;;
2824;SDS011;1420;51.324;12.344;2023-02-28T03:00:23;370.57;;;350.12;;
2824;SDS011;1420;51.324;12.344;2023-02-28T03:02:48;467.07;;;436.38;;
2824;SDS011;1420;51.324;12.344;2023-02-28T03:05:17;324.27;;;307.12;;
2824;SDS011;1420;51.324;12.344;2023-02-28T03:07:44;315.05;;;298.05;;
2824;SDS011;1420;51.324;12.344;2023-02-28T03:12:52;518.52;;;489.35;;
2824;SDS011;1420;51.324;12.344;2023-02-28T03:15:20;316.43;;;299.60;;
2824;SDS011;1420;51.324;12.344;2023-02-28T03:17:49;342.37;;;324.53;;
2824;SDS011;1420;51.324;12.344;2023-02-28T03:20:26;393.07;;;372.83;;
2824;SDS011;1420;51.324;12.344;2023-02-28T03:23:01;338.18;;;319.63;;
2824;SDS011;1420;51.324;12.344;2023-02-28T03:25:31;345.33;;;326.85;;
2824;SDS011;1420;51.324;12.344;2023-02-28T03:28:25;433.75;;;409.68;;
2824;SDS011;1420;51.324;12.344;2023-02-28T03:30:59;514.73;;;484.90;;
2824;SDS011;1420;51.324;12.344;2023-02-28T03:33:28;305.00;;;288.55;;
2824;SDS011;1420;51.324;12.344;2023-02-28T03:35:57;328.95;;;311.42;;
2824;SDS011;1420;51.324;12.344;2023-02-28T03:41:13;296.43;;;279.82;;
2824;SDS011;1420;51.324;12.344;2023-02-28T03:43:40;353.88;;;334.75;;
2824;SDS011;1420;51.324;12.344;2023-02-28T03:46:08;276.10;;;260.73;;
2824;SDS011;1420;51.324;12.344;2023-02-28T03:48:37;295.65;;;279.73;;
2824;SDS011;1420;51.324;12.344;2023-02-28T03:51:01;427.78;;;405.95;;
2824;SDS011;1420;51.324;12.344;2023-02-28T03:53:30;469.15;;;441.67;;
2824;SDS011;1420;51.324;12.344;2023-02-28T03:56:17;341.45;;;323.37;;
2824;SDS011;1420;51.324;12.344;2023-02-28T03:58:51;342.38;;;323.93;;
2824;SDS011;1420;51.324;12.344;2023-02-28T04:01:21;353.00;;;334.43;;
2824;SDS011;1420;51.324;12.344;2023-02-28T04:03:49;326.60;;;309.42;;
2824;SDS011;1420;51.324;12.344;2023-02-28T04:06:16;321.90;;;304.82;;
2824;SDS011;1420;51.324;12.344;2023-02-28T04:08:43;333.20;;;315.85;;
2824;SDS011;1420;51.324;12.344;2023-02-28T04:11:16;324.23;;;307.27;;
2824;SDS011;1420;51.324;12.344;2023-02-28T04:13:48;297.10;;;281.03;;
2824;SDS011;1420;51.324;12.344;2023-02-28T04:16:16;293.83;;;277.45;;
2824;SDS011;1420;51.324;12.344;2023-02-28T04:18:44;262.77;;;247.92;;
2824;SDS011;1420;51.324;12.344;2023-02-28T04:21:12;290.65;;;274.55;;
2824;SDS011;1420;51.324;12.344;2023-02-28T04:23:39;254.33;;;239.98;;
2824;SDS011;1420;51.324;12.344;2023-02-28T04:26:06;278.12;;;262.93;;
2824;SDS011;1420;51.324;12.344;2023-02-28T04:28:33;234.00;;;220.27;;
2824;SDS011;1420;51.324;12.344;2023-02-28T04:31:02;388.78;;;365.53;;
2824;SDS011;1420;51.324;12.344;2023-02-28T04:33:28;549.12;;;515.77;;
2824;SDS011;1420;51.324;12.344;2023-02-28T04:35:59;303.93;;;287.67;;
2824;SDS011;1420;51.324;12.344;2023-02-28T04:38:35;539.93;;;509.80;;
2824;SDS011;1420;51.324;12.344;2023-02-28T04:41:02;310.98;;;294.03;;
2824;SDS011;1420;51.324;12.344;2023-02-28T04:43:30;344.28;;;326.10;;
2824;SDS011;1420;51.324;12.344;2023-02-28T04:45:57;379.00;;;359.40;;
2824;SDS011;1420;51.324;12.344;2023-02-28T04:48:24;572.10;;;534.78;;
2824;SDS011;1420;51.324;12.344;2023-02-28T04:50:51;344.27;;;326.52;;
2824;SDS011;1420;51.324;12.344;2023-02-28T04:53:18;497.65;;;471.53;;
2824;SDS011;1420;51.324;12.344;2023-02-28T04:55:45;329.43;;;311.88;;
2824;SDS011;1420;51.324;12.344;2023-02-28T04:58:13;412.17;;;391.00;;
2824;SDS011;1420;51.324;12.344;2023-02-28T05:00:41;464.90;;;440.58;;
2824;SDS011;1420;51.324;12.344;2023-02-28T05:03:08;407.55;;;386.47;;
2824;SDS011;1420;51.324;12.344;2023-02-28T05:05:36;553.80;;;524.03;;
2824;SDS011;1420;51.324;12.344;2023-02-28T05:08:03;585.22;;;553.63;;
2824;SDS011;1420;51.324;12.344;2023-02-28T05:10:31;380.18;;;360.68;;
2824;SDS011;1420;51.324;12.344;2023-02-28T05:12:58;418.33;;;396.92;;
2824;SDS011;1420;51.324;12.344;2023-02-28T05:15:27;416.83;;;395.62;;
2824;SDS011;1420;51.324;12.344;2023-02-28T05:17:54;406.22;;;385.37;;
2824;SDS011;1420;51.324;12.344;2023-02-28T05:20:21;545.47;;;516.30;;
2824;SDS011;1420;51.324;12.344;2023-02-28T05:22:49;430.03;;;407.85;;
2824;SDS011;1420;51.324;12.344;2023-02-28T05:25:18;516.67;;;488.52;;
2824;SDS011;1420;51.324;12.344;2023-02-28T05:27:44;386.23;;;366.17;;
2824;SDS011;1420;51.324;12.344;2023-02-28T05:30:11;386.67;;;366.53;;
2824;SDS011;1420;51.324;12.344;2023-02-28T05:32:39;443.07;;;420.60;;
2824;SDS011;1420;51.324;12.344;2023-02-28T05:35:06;426.57;;;404.43;;
2824;SDS011;1420;51.324;12.344;2023-02-28T05:37:34;390.70;;;370.43;;
2824;SDS011;1420;51.324;12.344;2023-02-28T05:40:02;399.12;;;378.00;;
2824;SDS011;1420;51.324;12.344;2023-02-28T05:42:30;961.95;;;876.13;;
2824;SDS011;1420;51.324;12.344;2023-02-28T05:44:58;386.08;;;366.10;;
2824;SDS011;1420;51.324;12.344;2023-02-28T05:47:26;398.47;;;378.03;;
2824;SDS011;1420;51.324;12.344;2023-02-28T05:49:54;398.42;;;377.70;;
2824;SDS011;1420;51.324;12.344;2023-02-28T05:52:21;383.13;;;363.10;;
2824;SDS011;1420;51.324;12.344;2023-02-28T05:54:48;598.83;;;564.73;;
2824;SDS011;1420;51.324;12.344;2023-02-28T05:57:15;396.83;;;376.35;;
2824;SDS011;1420;51.324;12.344;2023-02-28T05:59:43;438.47;;;414.47;;
2824;SDS011;1420;51.324;12.344;2023-02-28T06:02:13;378.23;;;359.12;;
2824;SDS011;1420;51.324;12.344;2023-02-28T06:04:39;367.00;;;347.42;;
2824;SDS011;1420;51.324;12.344;2023-02-28T06:07:06;289.85;;;273.32;;
2824;SDS011;1420;51.324;12.344;2023-02-28T06:09:34;333.20;;;315.63;;
2824;SDS011;1420;51.324;12.344;2023-02-28T06:12:03;348.73;;;329.62;;
2824;SDS011;1420;51.324;12.344;2023-02-28T06:14:29;496.42;;;468.35;;
2824;SDS011;1420;51.324;12.344;2023-02-28T06:16:58;478.68;;;452.48;;
2824;SDS011;1420;51.324;12.344;2023-02-28T06:19:25;393.52;;;372.42;;
2824;SDS011;1420;51.324;12.344;2023-02-28T06:21:52;375.13;;;355.43;;
2824;SDS011;1420;51.324;12.344;2023-02-28T06:24:20;478.88;;;454.13;;
2824;SDS011;1420;51.324;12.344;2023-02-28T06:26:47;369.67;;;350.60;;
2824;SDS011;1420;51.324;12.344;2023-02-28T06:29:14;430.08;;;406.78;;
2824;SDS011;1420;51.324;12.344;2023-02-28T06:31:44;378.55;;;358.42;;
2824;SDS011;1420;51.324;12.344;2023-02-28T06:34:12;367.58;;;348.32;;
2824;SDS011;1420;51.324;12.344;2023-02-28T06:36:40;448.83;;;424.45;;
2824;SDS011;1420;51.324;12.344;2023-02-28T06:39:07;372.18;;;352.62;;
2824;SDS011;1420;51.324;12.344;2023-02-28T06:41:35;363.58;;;344.52;;
2824;SDS011;1420;51.324;12.344;2023-02-28T06:44:02;523.92;;;493.37;;
2824;SDS011;1420;51.324;12.344;2023-02-28T06:46:29;382.28;;;362.67;;
2824;SDS011;1420;51.324;12.344;2023-02-28T06:48:56;345.25;;;326.28;;
2824;SDS011;1420;51.324;12.344;2023-02-28T06:51:23;572.45;;;541.50;;
2824;SDS011;1420;51.324;12.344;2023-02-28T06:53:51;400.55;;;379.07;;
2824;SDS011;1420;51.324;12.344;2023-02-28T06:56:19;566.72;;;531.35;;
2824;SDS011;1420;51.324;12.344;2023-02-28T06:58:47;149.00;;;137.58;;
2824;SDS011;1420;51.324;12.344;2023-02-28T07:01:14;125.25;;;115.13;;
2824;SDS011;1420;51.324;12.344;2023-02-28T07:03:42;140.75;;;130.38;;
2824;SDS011;1420;51.324;12.344;2023-02-28T07:06:10;165.28;;;153.98;;
2824;SDS011;1420;51.324;12.344;2023-02-28T07:08:38;191.62;;;179.20;;
2824;SDS011;1420;51.324;12.344;2023-02-28T07:11:05;184.98;;;172.92;;
2824;SDS011;1420;51.324;12.344;2023-02-28T07:13:32;220.57;;;207.47;;
2824;SDS011;1420;51.324;12.344;2023-02-28T07:16:01;264.78;;;250.07;;
2824;SDS011;1420;51.324;12.344;2023-02-28T07:18:27;347.00;;;328.97;;
2824;SDS011;1420;51.324;12.344;2023-02-28T07:20:54;356.37;;;338.17;;
2824;SDS011;1420;51.324;12.344;2023-02-28T07:23:22;375.97;;;356.13;;
2824;SDS011;1420;51.324;12.344;2023-02-28T07:25:49;424.73;;;403.25;;
2824;SDS011;1420;51.324;12.344;2023-02-28T07:28:16;788.33;;;736.53;;
2824;SDS011;1420;51.324;12.344;2023-02-28T07:30:43;484.77;;;459.57;;
2824;SDS011;1420;51.324;12.344;2023-02-28T07:33:11;360.97;;;341.88;;
2824;SDS011;1420;51.324;12.344;2023-02-28T07:35:38;445.05;;;422.32;;
2824;SDS011;1420;51.324;12.344;2023-02-28T07:38:06;466.70;;;442.45;;
2824;SDS011;1420;51.324;12.344;2023-02-28T07:40:34;424.55;;;402.63;;
2824;SDS011;1420;51.324;12.344;2023-02-28T07:43:01;445.82;;;423.12;;
2824;SDS011;1420;51.324;12.344;2023-02-28T07:45:28;514.63;;;488.87;;
2824;SDS011;1420;51.324;12.344;2023-02-28T07:47:55;486.95;;;462.05;;
2824;SDS011;1420;51.324;12.344;2023-02-28T07:50:23;504.12;;;478.85;;
2824;SDS011;1420;51.324;12.344;2023-02-28T07:52:51;501.58;;;475.67;;
2824;SDS011;1420;51.324;12.344;2023-02-28T07:55:18;519.87;;;492.90;;
2824;SDS011;1420;51.324;12.344;2023-02-28T07:57:45;601.62;;;569.77;;
2824;SDS011;1420;51.324;12.344;2023-02-28T08:00:13;545.00;;;517.15;;
2824;SDS011;1420;51.324;12.344;2023-02-28T08:02:40;519.12;;;492.17;;
2824;SDS011;1420;51.324;12.344;2023-02-28T08:05:08;638.90;;;604.45;;
2824;SDS011;1420;51.324;12.344;2023-02-28T08:07:35;596.63;;;565.58;;
2824;SDS011;1420;51.324;12.344;2023-02-28T08:10:03;465.32;;;441.62;;
2824;SDS011;1420;51.324;12.344;2023-02-28T08:12:31;563.68;;;534.48;;
2824;SDS011;1420;51.324;12.344;2023-02-28T08:14:58;702.85;;;663.90;;
2824;SDS011;1420;51.324;12.344;2023-02-28T08:17:25;728.90;;;688.05;;
2824;SDS011;1420;51.324;12.344;2023-02-28T08:19:53;757.02;;;714.65;;
2824;SDS011;1420;51.324;12.344;2023-02-28T08:22:20;782.68;;;734.92;;
2824;SDS011;1420;51.324;12.344;2023-02-28T08:24:47;627.02;;;593.05;;
2824;SDS011;1420;51.324;12.344;2023-02-28T08:27:15;709.15;;;669.53;;
2824;SDS011;1420;51.324;12.344;2023-02-28T08:29:42;602.78;;;571.45;;
2824;SDS011;1420;51.324;12.344;2023-02-28T08:32:09;597.55;;;565.15;;
2824;SDS011;1420;51.324;12.344;2023-02-28T08:34:38;668.45;;;631.68;;
2824;SDS011;1420;51.324;12.344;2023-02-28T08:37:04;897.72;;;840.13;;
2824;SDS011;1420;51.324;12.344;2023-02-28T08:39:33;580.35;;;549.68;;
2824;SDS011;1420;51.324;12.344;2023-02-28T08:41:58;544.13;;;516.22;;
2824;SDS011;1420;51.324;12.344;2023-02-28T08:44:26;526.85;;;500.23;;
2824;SDS011;1420;51.324;12.344;2023-02-28T08:46:53;579.80;;;550.35;;
2824;SDS011;1420;51.324;12.344;2023-02-28T08:49:21;575.73;;;545.73;;
2824;SDS011;1420;51.324;12.344;2023-02-28T08:51:48;767.30;;;724.88;;
2824;SDS011;1420;51.324;12.344;2023-02-28T08:54:15;815.90;;;767.02;;
2824;SDS011;1420;51.324;12.344;2023-02-28T08:56:42;856.17;;;803.88;;
2824;SDS011;1420;51.324;12.344;2023-02-28T08:59:10;972.78;;;904.95;;
2824;SDS011;1420;51.324;12.344;2023-02-28T09:01:38;730.30;;;689.82;;
2824;SDS011;1420;51.324;12.344;2023-02-28T09:04:05;643.77;;;609.35;;
2824;SDS011;1420;51.324;12.344;2023-02-28T09:06:32;700.82;;;662.67;;
2824;SDS011;1420;51.324;12.344;2023-02-28T09:09:00;829.42;;;781.23;;
2824;SDS011;1420;51.324;12.344;2023-02-28T09:11:28;725.47;;;684.05;;
2824;SDS011;1420;51.324;12.344;2023-02-28T09:13:55;725.80;;;685.42;;
2824;SDS011;1420;51.324;12.344;2023-02-28T09:16:22;732.55;;;691.43;;
2824;SDS011;1420;51.324;12.344;2023-02-28T09:18:50;911.83;;;852.90;;
2824;SDS011;1420;51.324;12.344;2023-02-28T09:21:18;774.03;;;724.33;;
2824;SDS011;1420;51.324;12.344;2023-02-28T09:23:47;835.02;;;781.02;;
2824;SDS011;1420;51.324;12.344;2023-02-28T09:26:14;777.75;;;729.93;;
2824;SDS011;1420;51.324;12.344;2023-02-28T09:28:43;789.12;;;743.28;;
2824;SDS011;1420;51.324;12.344;2023-02-28T09:31:11;683.42;;;646.25;;
2824;SDS011;1420;51.324;12.344;2023-02-28T09:33:38;709.23;;;670.63;;
2824;SDS011;1420;51.324;12.344;2023-02-28T09:36:05;702.98;;;664.78;;
2824;SDS011;1420;51.324;12.344;2023-02-28T09:38:32;670.07;;;633.62;;
2824;SDS011;1420;51.324;12.344;2023-02-28T09:41:01;814.82;;;765.90;;
2824;SDS011;1420;51.324;12.344;2023-02-28T09:43:30;730.00;;;689.08;;
2824;SDS011;1420;51.324;12.344;2023-02-28T09:45:59;771.20;;;727.12;;
2824;SDS011;1420;51.324;12.344;2023-02-28T09:48:29;708.25;;;669.32;;
2824;SDS011;1420;51.324;12.344;2023-02-28T09:50:59;748.65;;;697.42;;
2824;SDS011;1420;51.324;12.344;2023-02-28T09:53:26;979.67;;;894.55;;
2824;SDS011;1420;51.324;12.344;2023-02-28T09:55:58;807.85;;;756.70;;
2824;SDS011;1420;51.324;12.344;2023-02-28T09:58:27;774.95;;;729.27;;
2824;SDS011;1420;51.324;12.344;2023-02-28T10:00:56;1999.90;;;999.90;;
2824;SDS011;1420;51.324;12.344;2023-02-28T10:03:24;1999.90;;;999.90;;
2824;SDS011;1420;51.324;12.344;2023-02-28T10:05:51;736.57;;;693.92;;
2824;SDS011;1420;51.324;12.344;2023-02-28T10:08:37;743.12;;;700.38;;
2824;SDS011;1420;51.324;12.344;2023-02-28T10:11:03;612.70;;;579.92;;
2824;SDS011;1420;51.324;12.344;2023-02-28T10:13:35;676.10;;;639.80;;
2824;SDS011;1420;51.324;12.344;2023-02-28T10:16:03;749.18;;;706.22;;
2824;SDS011;1420;51.324;12.344;2023-02-28T10:18:37;761.45;;;717.30;;
2824;SDS011;1420;51.324;12.344;2023-02-28T10:21:03;983.75;;;904.53;;
2824;SDS011;1420;51.324;12.344;2023-02-28T10:23:37;921.00;;;855.22;;
2824;SDS011;1420;51.324;12.344;2023-02-28T10:26:09;932.62;;;858.48;;
2824;SDS011;1420;51.324;12.344;2023-02-28T10:28:32;756.52;;;711.35;;
2824;SDS011;1420;51.324;12.344;2023-02-28T10:30:59;835.57;;;780.37;;
2824;SDS011;1420;51.324;12.344;2023-02-28T10:33:28;645.85;;;576.47;;
2824;SDS011;1420;51.324;12.344;2023-02-28T10:36:02;828.62;;;777.87;;
2824;SDS011;1420;51.324;12.344;2023-02-28T10:38:32;837.35;;;777.58;;
2824;SDS011;1420;51.324;12.344;2023-02-28T10:41:07;871.73;;;801.65;;
2824;SDS011;1420;51.324;12.344;2023-02-28T10:43:35;860.63;;;804.98;;
2824;SDS011;1420;51.324;12.344;2023-02-28T10:51:33;823.77;;;773.10;;
2824;SDS011;1420;51.324;12.344;2023-02-28T10:53:56;931.55;;;863.43;;
2824;SDS011;1420;51.324;12.344;2023-02-28T10:56:24;571.52;;;537.25;;
2824;SDS011;1420;51.324;12.344;2023-02-28T11:01:50;699.82;;;655.70;;
2824;SDS011;1420;51.324;12.344;2023-02-28T11:04:18;775.23;;;729.65;;
2824;SDS011;1420;51.324;12.344;2023-02-28T11:07:05;682.13;;;644.40;;
2824;SDS011;1420;51.324;12.344;2023-02-28T11:09:38;683.48;;;645.05;;
2824;SDS011;1420;51.324;12.344;2023-02-28T11:12:07;705.35;;;665.50;;
2824;SDS011;1420;51.324;12.344;2023-02-28T11:14:36;928.55;;;853.47;;
2824;SDS011;1420;51.324;12.344;2023-02-28T11:17:11;799.25;;;748.25;;
2824;SDS011;1420;51.324;12.344;2023-02-28T11:19:45;741.17;;;699.17;;
2824;SDS011;1420;51.324;12.344;2023-02-28T11:22:15;780.70;;;735.07;;
2824;SDS011;1420;51.324;12.344;2023-02-28T11:24:41;859.53;;;806.80;;
2824;SDS011;1420;51.324;12.344;2023-02-28T11:27:23;793.53;;;746.12;;
2824;SDS011;1420;51.324;12.344;2023-02-28T11:29:34;896.23;;;834.33;;
2824;SDS011;1420;51.324;12.344;2023-02-28T11:32:11;807.88;;;760.18;;
2824;SDS011;1420;51.324;12.344;2023-02-28T11:34:59;774.47;;;725.92;;
2824;SDS011;1420;51.324;12.344;2023-02-28T11:37:16;829.12;;;778.97;;
2824;SDS011;1420;51.324;12.344;2023-02-28T11:39:43;910.10;;;849.73;;
2824;SDS011;1420;51.324;12.344;2023-02-28T11:42:17;762.88;;;718.47;;
2824;SDS011;1420;51.324;12.344;2023-02-28T11:45:55;808.10;;;760.72;;
2824;SDS011;1420;51.324;12.344;2023-02-28T11:48:04;750.15;;;705.95;;
2824;SDS011;1420;51.324;12.344;2023-02-28T11:50:16;797.87;;;749.53;;
2824;SDS011;1420;51.324;12.344;2023-02-28T11:53:00;622.98;;;586.27;;
2824;SDS011;1420;51.324;12.344;2023-02-28T11:55:28;608.67;;;571.70;;
2824;SDS011;1420;51.324;12.344;2023-02-28T12:00:44;811.68;;;759.50;;
2824;SDS011;1420;51.324;12.344;2023-02-28T12:03:18;735.63;;;690.57;;
2824;SDS011;1420;51.324;12.344;2023-02-28T12:05:52;736.50;;;692.43;;
2824;SDS011;1420;51.324;12.344;2023-02-28T12:08:39;716.35;;;674.07;;
2824;SDS011;1420;51.324;12.344;2023-02-28T12:13:42;653.43;;;613.38;;
2824;SDS011;1420;51.324;12.344;2023-02-28T12:16:18;1245.43;;;725.42;;
2824;SDS011;1420;51.324;12.344;2023-02-28T12:18:57;491.85;;;459.70;;
2824;SDS011;1420;51.324;12.344;2023-02-28T12:21:28;257.75;;;236.58;;
2824;SDS011;1420;51.324;12.344;2023-02-28T12:24:02;1999.90;;;999.90;;
2824;SDS011;1420;51.324;12.344;2023-02-28T12:26:34;1999.90;;;999.90;;
2824;SDS011;1420;51.324;12.344;2023-02-28T12:29:04;1999.90;;;999.90;;
2824;SDS011;1420;51.324;12.344;2023-02-28T12:31:34;1999.90;;;999.90;;
2824;SDS011;1420;51.324;12.344;2023-02-28T12:34:01;1999.90;;;999.90;;
2824;SDS011;1420;51.324;12.344;2023-02-28T12:36:27;1999.90;;;999.90;;
2824;SDS011;1420;51.324;12.344;2023-02-28T12:38:58;1999.90;;;999.90;;
2824;SDS011;1420;51.324;12.344;2023-02-28T12:41:29;1999.90;;;999.90;;
2824;SDS011;1420;51.324;12.344;2023-02-28T12:44:07;1999.90;;;999.90;;
2824;SDS011;1420;51.324;12.344;2023-02-28T12:46:33;1999.90;;;999.90;;
2824;SDS011;1420;51.324;12.344;2023-02-28T12:49:06;1999.90;;;999.90;;
2824;SDS011;1420;51.324;12.344;2023-02-28T12:51:33;1999.90;;;999.90;;
2824;SDS011;1420;51.324;12.344;2023-02-28T12:54:07;1999.90;;;999.90;;
2824;SDS011;1420;51.324;12.344;2023-02-28T12:56:43;1999.90;;;999.90;;
2824;SDS011;1420;51.324;12.344;2023-02-28T12:59:15;1999.90;;;999.90;;
2824;SDS011;1420;51.324;12.344;2023-02-28T13:01:47;1105.58;;;591.08;;
2824;SDS011;1420;51.324;12.344;2023-02-28T13:04:21;1088.45;;;567.10;;
2824;SDS011;1420;51.324;12.344;2023-02-28T13:09:54;1999.90;;;999.90;;
2824;SDS011;1420;51.324;12.344;2023-02-28T13:12:22;1999.90;;;999.90;;
2824;SDS011;1420;51.324;12.344;2023-02-28T13:14:49;344.70;;;320.93;;
2824;SDS011;1420;51.324;12.344;2023-02-28T13:17:20;1999.90;;;999.90;;
2824;SDS011;1420;51.324;12.344;2023-02-28T13:19:56;1999.90;;;999.90;;
2824;SDS011;1420;51.324;12.344;2023-02-28T13:25:02;525.32;;;492.38;;
2824;SDS011;1420;51.324;12.344;2023-02-28T13:27:33;500.33;;;468.05;;
2824;SDS011;1420;51.324;12.344;2023-02-28T13:30:00;1999.90;;;999.90;;
2824;SDS011;1420;51.324;12.344;2023-02-28T13:32:30;580.82;;;546.10;;
2824;SDS011;1420;51.324;12.344;2023-02-28T13:37:42;1999.90;;;999.90;;
2824;SDS011;1420;51.324;12.344;2023-02-28T13:42:52;579.43;;;545.32;;
2824;SDS011;1420;51.324;12.344;2023-02-28T13:45:23;1095.27;;;583.32;;
2824;SDS011;1420;51.324;12.344;2023-02-28T13:47:51;1201.83;;;686.42;;
2824;SDS011;1420;51.324;12.344;2023-02-28T13:50:26;1221.77;;;707.32;;
2824;SDS011;1420;51.324;12.344;2023-02-28T13:55:53;1234.35;;;718.37;;
2824;SDS011;1420;51.324;12.344;2023-02-28T13:59:06;584.92;;;550.30;;
2824;SDS011;1420;51.324;12.344;2023-02-28T14:01:21;540.60;;;508.65;;
2824;SDS011;1420;51.324;12.344;2023-02-28T14:05:02;586.93;;;552.90;;
2824;SDS011;1420;51.324;12.344;2023-02-28T14:06:56;568.82;;;534.75;;
2824;SDS011;1420;51.324;12.344;2023-02-28T14:09:28;617.17;;;571.60;;
2824;SDS011;1420;51.324;12.344;2023-02-28T14:11:54;650.15;;;607.10;;
2824;SDS011;1420;51.324;12.344;2023-02-28T14:17:01;693.77;;;649.88;;
2824;SDS011;1420;51.324;12.344;2023-02-28T14:19:30;591.30;;;556.97;;
2824;SDS011;1420;51.324;12.344;2023-02-28T14:22:09;621.97;;;585.97;;
2824;SDS011;1420;51.324;12.344;2023-02-28T14:25:09;611.60;;;574.55;;
2824;SDS011;1420;51.324;12.344;2023-02-28T14:27:28;591.22;;;556.07;;
2824;SDS011;1420;51.324;12.344;2023-02-28T14:30:02;543.83;;;512.12;;
2824;SDS011;1420;51.324;12.344;2023-02-28T14:32:41;626.38;;;590.72;;
2824;SDS011;1420;51.324;12.344;2023-02-28T14:35:16;610.67;;;573.67;;
2824;SDS011;1420;51.324;12.344;2023-02-28T14:37:43;518.70;;;479.53;;
2824;SDS011;1420;51.324;12.344;2023-02-28T14:40:13;606.43;;;572.88;;
2824;SDS011;1420;51.324;12.344;2023-02-28T14:42:46;608.17;;;572.82;;
2824;SDS011;1420;51.324;12.344;2023-02-28T14:45:17;650.72;;;613.73;;
2824;SDS011;1420;51.324;12.344;2023-02-28T14:47:45;676.95;;;634.42;;
2824;SDS011;1420;51.324;12.344;2023-02-28T14:50:18;649.20;;;607.45;;
2824;SDS011;1420;51.324;12.344;2023-02-28T14:52:44;651.47;;;605.53;;
2824;SDS011;1420;51.324;12.344;2023-02-28T14:55:14;611.48;;;577.67;;
2824;SDS011;1420;51.324;12.344;2023-02-28T14:57:40;664.38;;;626.72;;
2824;SDS011;1420;51.324;12.344;2023-02-28T15:00:10;639.95;;;605.00;;